Time;durP1;ratioP1;P1;durP2;ratioP2;P2;SDS_P1;SDS_P2;PMS_P1;PMS_P2;Temp;Humidity;BMP_temperature;BMP_pressure;BME280_temperature;BME280_humidity;BME280_pressure;Samples;Min_cycle;Max_cycle;Signal;HPM_P1;HPM_P2
2021/09/19 00:01:23;;;;;;;;;6.75;6.00;;;;;21.65;59.31;100720.75;6279080;22;45191;-68
2021/09/19 00:03:48;;;;;;;;;9.00;8.75;;;;;21.63;59.19;100720.91;6279128;22;45081;-69
2021/09/19 00:06:15;;;;;;;;;7.25;6.75;;;;;21.55;59.39;100715.22;6279139;22;45602;-68
2021/09/19 00:08:40;;;;;;;;;7.00;7.00;;;;;21.55;59.58;100715.22;6278492;22;45128;-69
2021/09/19 00:11:05;;;;;;;;;8.00;8.00;;;;;21.55;59.28;100711.63;6279367;22;46235;-68
2021/09/19 00:13:31;;;;;;;;;6.50;6.50;;;;;21.69;59.48;100732.28;6276912;22;45578;-69
2021/09/19 00:15:56;;;;;;;;;6.25;6.25;;;;;21.69;59.51;100719.56;6303534;22;45282;-69
2021/09/19 00:18:22;;;;;;;;;6.50;6.00;;;;;21.67;59.25;100712.50;6302908;22;45544;-69
2021/09/19 00:20:48;;;;;;;;;6.00;6.00;;;;;21.60;59.77;100701.25;6279411;22;45467;-68
2021/09/19 00:23:14;;;;;;;;;8.25;5.75;;;;;21.53;59.76;100690.00;6279207;22;45406;-68
2021/09/19 00:25:39;;;;;;;;;7.50;7.00;;;;;21.59;59.63;100704.97;6303301;22;45293;-68
2021/09/19 00:28:05;;;;;;;;;7.50;6.00;;;;;21.74;59.45;100724.63;6302993;22;45355;-68
2021/09/19 00:30:31;;;;;;;;;5.00;5.00;;;;;21.68;59.79;100717.81;6278776;22;45372;-68
2021/09/19 00:32:58;;;;;;;;;9.00;7.75;;;;;21.59;59.88;100699.53;6278879;22;45298;-68
2021/09/19 00:35:24;;;;;;;;;5.75;5.75;;;;;21.63;59.31;100712.75;6303428;22;45297;-68
2021/09/19 00:37:49;;;;;;;;;4.50;4.50;;;;;21.62;59.42;100699.31;6278960;22;45429;-68
2021/09/19 00:40:15;;;;;;;;;6.25;6.25;;;;;21.69;59.72;100713.25;6276975;22;47259;-69
2021/09/19 00:42:40;;;;;;;;;6.75;6.25;;;;;21.59;59.63;100699.53;6278966;22;45304;-69
2021/09/19 00:45:10;;;;;;;;;5.00;5.00;;;;;21.63;59.88;100704.63;6278881;22;45152;-68
2021/09/19 00:47:36;;;;;;;;;7.00;6.00;;;;;21.61;59.62;100703.00;6278457;22;45223;-69
2021/09/19 00:50:02;;;;;;;;;5.75;5.75;;;;;21.57;59.25;100699.66;6302844;22;48371;-69
2021/09/19 00:52:28;;;;;;;;;6.00;6.00;;;;;21.51;59.44;100686.56;6277026;22;45980;-68
2021/09/19 00:54:59;;;;;;;;;6.00;6.00;;;;;21.48;59.52;100675.09;6303262;22;45277;-68
2021/09/19 00:57:26;;;;;;;;;5.75;5.75;;;;;21.55;59.98;100700.75;6276691;22;46007;-69
2021/09/19 00:59:52;;;;;;;;;6.25;6.25;;;;;21.28;59.86;100650.34;6275583;22;48079;-68
2021/09/19 01:02:18;;;;;;;;;6.00;6.00;;;;;21.54;59.79;100701.75;6278962;22;45105;-68
2021/09/19 01:04:44;;;;;;;;;8.00;8.00;;;;;21.47;59.35;100685.09;6277445;22;45271;-68
2021/09/19 01:07:10;;;;;;;;;5.00;5.00;;;;;21.46;59.85;100689.59;6278978;22;45192;-68
2021/09/19 01:09:37;;;;;;;;;5.75;5.75;;;;;21.41;59.38;100680.97;6277682;22;46057;-68
2021/09/19 01:12:02;;;;;;;;;5.25;5.25;;;;;21.49;59.64;100693.13;6278819;22;45561;-68
2021/09/19 01:14:30;;;;;;;;;5.25;5.25;;;;;21.51;59.50;100692.00;6278984;22;45282;-68
2021/09/19 01:16:59;;;;;;;;;6.00;6.00;;;;;21.34;60.26;100670.72;6278939;22;45758;-68
2021/09/19 01:19:25;;;;;;;;;8.25;8.25;;;;;21.52;59.83;100701.88;6278597;22;46088;-69
2021/09/19 01:21:53;;;;;;;;;8.75;8.75;;;;;21.34;59.76;100665.28;6276893;22;45273;-68
2021/09/19 01:24:21;;;;;;;;;7.00;7.00;;;;;21.44;59.83;100680.72;6279257;22;45515;-68
2021/09/19 01:26:47;;;;;;;;;7.00;6.00;;;;;21.38;60.47;100675.75;6276785;22;45366;-68
2021/09/19 01:29:13;;;;;;;;;6.00;6.00;;;;;21.30;60.31;100672.81;6278217;22;45803;-68
2021/09/19 01:31:38;;;;;;;;;6.25;6.25;;;;;21.37;60.20;100673.19;6303011;22;45197;-69
2021/09/19 01:34:05;;;;;;;;;8.75;6.75;;;;;21.35;60.01;100667.88;6302945;22;45151;-68
2021/09/19 01:36:35;;;;;;;;;7.50;6.50;;;;;21.38;60.68;100680.34;6278813;22;45333;-68
2021/09/19 01:39:01;;;;;;;;;4.75;4.75;;;;;21.40;60.53;100692.81;6276738;22;47188;-68
2021/09/19 01:41:26;;;;;;;;;7.00;7.00;;;;;21.40;60.01;100689.22;6276530;22;45465;-68
2021/09/19 01:43:54;;;;;;;;;6.00;5.50;;;;;21.29;60.17;100671.94;6278861;22;45279;-68
2021/09/19 01:46:19;;;;;;;;;9.25;8.75;;;;;21.22;60.70;100665.25;6278698;22;45262;-68
2021/09/19 01:48:45;;;;;;;;;8.00;6.50;;;;;21.27;60.59;100675.78;6276485;22;46357;-68
2021/09/19 01:51:10;;;;;;;;;8.00;7.75;;;;;21.22;60.55;100664.41;6276550;22;45109;-68
2021/09/19 01:53:40;;;;;;;;;7.50;6.00;;;;;21.35;60.83;100691.44;6278916;22;45313;-68
2021/09/19 01:56:07;;;;;;;;;6.50;6.50;;;;;21.35;60.50;100689.59;6278445;22;45302;-68
2021/09/19 01:58:40;;;;;;;;;8.00;6.50;;;;;21.28;60.44;100677.47;6275759;22;48323;-68
2021/09/19 02:01:05;;;;;;;;;7.25;6.25;;;;;21.18;60.43;100655.63;6278818;22;45312;-69
2021/09/19 02:03:31;;;;;;;;;8.00;7.00;;;;;21.20;60.38;100667.25;6276679;22;45358;-68
2021/09/19 02:05:56;;;;;;;;;8.25;7.00;;;;;21.31;60.64;100685.38;6278749;22;45258;-69
2021/09/19 02:08:21;;;;;;;;;7.75;6.50;;;;;21.17;61.04;100656.63;6302329;22;47330;-68
2021/09/19 02:10:47;;;;;;;;;8.75;8.75;;;;;21.16;60.76;100657.59;6275763;22;45297;-69
2021/09/19 02:13:12;;;;;;;;;7.50;7.50;;;;;21.15;60.92;100639.59;6278464;22;45138;-68
2021/09/19 02:15:38;;;;;;;;;9.50;8.75;;;;;21.20;60.76;100661.81;6278706;22;45084;-68
2021/09/19 02:18:03;;;;;;;;;9.00;9.00;;;;;21.20;60.56;100653.66;6278416;22;46262;-68
2021/09/19 02:20:29;;;;;;;;;8.00;7.00;;;;;21.22;61.05;100661.69;6278514;22;45159;-68
2021/09/19 02:22:54;;;;;;;;;7.00;7.00;;;;;21.25;61.13;100670.47;6278865;22;45224;-68
2021/09/19 02:25:20;;;;;;;;;8.00;7.25;;;;;21.22;60.79;100664.41;6278615;22;45354;-68
2021/09/19 02:27:45;;;;;;;;;8.25;8.25;;;;;21.27;60.80;100671.19;6276178;22;46955;-68
2021/09/19 02:30:14;;;;;;;;;6.00;6.00;;;;;21.15;61.19;100650.44;6276191;22;45583;-68
2021/09/19 02:32:39;;;;;;;;;8.00;8.00;;;;;21.28;61.22;100669.34;6278303;22;45306;-68
2021/09/19 02:35:07;;;;;;;;;9.50;9.00;;;;;21.14;60.71;100637.00;6278415;22;45275;-68
2021/09/19 02:37:35;;;;;;;;;6.50;6.50;;;;;21.26;61.31;100665.88;6278743;22;46675;-68
2021/09/19 02:40:00;;;;;;;;;9.00;9.00;;;;;21.27;61.38;100673.06;6278077;22;45601;-68
2021/09/19 02:42:25;;;;;;;;;8.00;7.75;;;;;21.26;61.29;100660.44;6278671;22;45148;-68
2021/09/19 02:44:51;;;;;;;;;7.50;7.50;;;;;21.26;61.31;100663.16;6278022;22;45515;-68
2021/09/19 02:47:16;;;;;;;;;10.75;10.00;;;;;21.22;61.17;100653.56;6278316;22;46008;-68
2021/09/19 02:49:41;;;;;;;;;11.25;9.00;;;;;21.23;61.26;100649.84;6278219;22;45255;-68
2021/09/19 02:52:07;;;;;;;;;12.25;10.00;;;;;21.17;61.22;100634.91;6278499;22;45797;-69
2021/09/19 02:54:32;;;;;;;;;9.50;9.50;;;;;21.04;61.33;100605.13;6302394;22;45318;-68
2021/09/19 02:56:58;;;;;;;;;10.00;9.00;;;;;21.22;61.22;100634.56;6278307;22;45443;-68
2021/09/19 02:59:23;;;;;;;;;10.25;9.25;;;;;21.07;61.39;100613.03;6277707;22;45188;-69
2021/09/19 03:01:48;;;;;;;;;9.25;8.00;;;;;21.21;61.15;100646.38;6277004;22;45241;-68
2021/09/19 03:04:14;;;;;;;;;8.25;8.25;;;;;21.07;61.67;100626.63;6276287;22;45552;-69
2021/09/19 03:06:40;;;;;;;;;9.75;9.75;;;;;21.20;61.40;100644.63;6276442;22;45320;-68
2021/09/19 03:09:05;;;;;;;;;11.25;9.75;;;;;21.17;61.60;100643.03;6277028;22;45250;-68
2021/09/19 03:11:31;;;;;;;;;10.25;9.25;;;;;20.98;61.17;100608.38;6278234;22;45344;-68
2021/09/19 03:13:56;;;;;;;;;9.50;8.75;;;;;21.07;61.32;100623.06;6275693;22;45553;-68
2021/09/19 03:16:21;;;;;;;;;9.50;9.50;;;;;21.10;61.29;100634.53;6277945;22;45480;-68
2021/09/19 03:18:47;;;;;;;;;8.00;8.00;;;;;21.08;61.75;100630.19;6277734;22;45170;-68
2021/09/19 03:21:12;;;;;;;;;10.75;10.25;;;;;21.06;61.29;100627.59;6276183;22;45118;-68
2021/09/19 03:23:38;;;;;;;;;10.50;9.75;;;;;20.87;61.40;100611.03;6277551;22;45472;-68
2021/09/19 03:26:03;;;;;;;;;13.75;11.00;;;;;21.03;61.34;100638.72;6279226;22;46095;-68
2021/09/19 03:28:29;;;;;;;;;11.25;10.50;;;;;20.91;61.80;100624.25;6278739;22;45186;-68
2021/09/19 03:30:54;;;;;;;;;9.25;9.25;;;;;21.00;61.37;100635.34;6277543;22;45276;-68
2021/09/19 03:33:19;;;;;;;;;9.75;9.75;;;;;20.97;61.55;100636.47;6277187;22;45250;-68
2021/09/19 03:35:45;;;;;;;;;10.50;9.50;;;;;20.91;61.72;100616.13;6277279;22;47235;-68
2021/09/19 03:38:10;;;;;;;;;9.00;9.00;;;;;20.89;61.54;100607.22;6302793;22;45676;-68
2021/09/19 03:40:36;;;;;;;;;11.25;8.50;;;;;20.94;61.70;100623.13;6303573;22;45103;-68
2021/09/19 03:43:01;;;;;;;;;7.50;7.25;;;;;20.99;61.85;100629.06;6278920;22;45230;-68
2021/09/19 03:45:29;;;;;;;;;12.50;12.00;;;;;20.94;61.66;100625.00;6279279;22;45259;-68
2021/09/19 03:47:56;;;;;;;;;9.50;8.75;;;;;20.96;61.64;100629.31;6278865;22;45366;-69
2021/09/19 03:50:22;;;;;;;;;10.00;9.50;;;;;20.90;61.80;100624.38;6277586;22;45390;-68
2021/09/19 03:52:47;;;;;;;;;9.50;9.50;;;;;20.87;61.64;100627.31;6303382;22;45597;-68
2021/09/19 03:55:13;;;;;;;;;10.75;10.50;;;;;20.94;62.25;100634.00;6277489;22;46899;-68
2021/09/19 03:57:38;;;;;;;;;12.75;11.00;;;;;20.90;62.22;100627.94;6279127;22;45223;-68
2021/09/19 04:00:05;;;;;;;;;11.00;10.25;;;;;20.89;61.95;100631.63;6278949;22;45311;-68
2021/09/19 04:02:31;;;;;;;;;11.75;11.50;;;;;20.89;62.42;100628.91;6303300;22;45851;-68
2021/09/19 04:04:56;;;;;;;;;11.50;11.50;;;;;20.89;61.98;100628.06;6277298;22;47252;-68
2021/09/19 04:07:21;;;;;;;;;13.50;12.25;;;;;20.93;61.94;100626.81;6277022;22;45816;-68
2021/09/19 04:09:47;;;;;;;;;13.50;11.50;;;;;20.92;61.74;100625.09;6278294;22;45230;-68
2021/09/19 04:12:12;;;;;;;;;10.00;9.00;;;;;20.81;61.82;100609.66;6277799;22;45453;-68
2021/09/19 04:14:37;;;;;;;;;13.00;13.00;;;;;20.90;62.14;100635.22;6278735;22;45413;-68
2021/09/19 04:17:03;;;;;;;;;11.00;10.50;;;;;20.79;61.67;100618.91;6277131;22;45300;-68
2021/09/19 04:19:28;;;;;;;;;13.00;12.00;;;;;20.70;61.47;100612.34;6279383;22;45265;-68
2021/09/19 04:21:54;;;;;;;;;10.00;10.00;;;;;20.87;61.73;100646.31;6279141;22;45230;-68
2021/09/19 04:24:19;;;;;;;;;10.25;10.25;;;;;20.85;62.24;100640.16;6278991;22;45431;-68
2021/09/19 04:26:45;;;;;;;;;11.75;11.75;;;;;20.77;62.19;100631.72;6279105;22;45247;-68
2021/09/19 04:29:10;;;;;;;;;9.75;9.25;;;;;20.76;61.28;100627.28;6278702;22;45291;-68
2021/09/19 04:31:35;;;;;;;;;11.25;11.25;;;;;20.71;61.73;100633.03;6279131;22;45477;-68
2021/09/19 04:34:01;;;;;;;;;12.25;10.50;;;;;20.76;61.30;100651.69;6276009;22;47023;-68
2021/09/19 04:36:26;;;;;;;;;14.00;13.25;;;;;20.59;61.00;100623.97;6279052;22;45239;-68
2021/09/19 04:38:51;;;;;;;;;9.25;9.25;;;;;20.68;60.95;100636.88;6302914;22;45330;-68
2021/09/19 04:41:17;;;;;;;;;10.50;10.50;;;;;20.69;60.81;100638.59;6279094;22;45425;-68
2021/09/19 04:43:42;;;;;;;;;10.75;10.25;;;;;20.77;60.51;100659.72;6302709;22;47327;-68
2021/09/19 04:46:08;;;;;;;;;11.50;10.75;;;;;20.75;60.37;100661.69;6279112;22;45101;-68
2021/09/19 04:48:33;;;;;;;;;11.25;11.25;;;;;20.76;60.59;100668.81;6279413;22;45257;-68
2021/09/19 04:50:58;;;;;;;;;12.00;10.50;;;;;20.78;59.56;100669.59;6279194;22;45493;-68
2021/09/19 04:53:24;;;;;;;;;13.75;13.75;;;;;20.66;59.57;100667.78;6276894;22;47199;-68
2021/09/19 04:55:49;;;;;;;;;10.75;10.75;;;;;20.56;59.26;100664.88;6279074;22;45207;-68
2021/09/19 04:58:14;;;;;;;;;11.50;11.50;;;;;20.57;59.20;100668.47;6279001;22;45166;-68
2021/09/19 05:00:40;;;;;;;;;11.00;11.00;;;;;20.56;59.32;100664.88;6279047;22;45081;-68
2021/09/19 05:03:05;;;;;;;;;11.50;11.00;;;;;20.52;59.45;100656.13;6279102;22;45313;-68
2021/09/19 05:05:31;;;;;;;;;11.75;10.50;;;;;20.59;59.36;100661.94;6302959;22;45201;-68
2021/09/19 05:07:56;;;;;;;;;10.75;10.75;;;;;20.57;59.15;100661.19;6279222;22;45594;-68
2021/09/19 05:10:21;;;;;;;;;13.25;10.75;;;;;20.33;58.95;100625.94;6278352;22;45416;-68
2021/09/19 05:12:47;;;;;;;;;14.00;13.50;;;;;20.44;59.18;100646.84;6279134;22;45220;-68
2021/09/19 05:15:12;;;;;;;;;10.25;10.25;;;;;20.54;59.25;100667.69;6278702;22;45264;-68
2021/09/19 05:17:37;;;;;;;;;10.50;10.50;;;;;20.52;58.94;100663.41;6279230;22;45323;-68
2021/09/19 05:20:03;;;;;;;;;15.25;13.50;;;;;20.48;58.72;100651.91;6276806;22;45417;-68
2021/09/19 05:22:29;;;;;;;;;12.00;10.50;;;;;20.47;58.55;100654.75;6278849;22;45378;-68
2021/09/19 05:24:54;;;;;;;;;11.25;11.00;;;;;20.37;58.37;100649.16;6278259;22;45323;-68
2021/09/19 05:27:20;;;;;;;;;13.75;12.25;;;;;20.27;58.50;100634.56;6278934;22;45231;-68
2021/09/19 05:29:45;;;;;;;;;15.75;14.75;;;;;20.30;58.34;100646.03;6302263;22;45385;-68
2021/09/19 05:32:10;;;;;;;;;11.00;11.00;;;;;20.38;58.57;100658.13;6278112;22;46197;-68
2021/09/19 05:34:36;;;;;;;;;10.50;10.50;;;;;20.27;58.39;100651.69;6278784;22;45315;-68
2021/09/19 05:37:02;;;;;;;;;12.75;12.75;;;;;20.30;58.24;100656.88;6278297;22;45183;-68
2021/09/19 05:39:28;;;;;;;;;16.75;13.25;;;;;20.38;58.71;100661.72;6278352;22;45258;-68
2021/09/19 05:41:53;;;;;;;;;13.00;11.75;;;;;20.20;58.65;100642.28;6276400;22;47065;-68
2021/09/19 05:44:19;;;;;;;;;13.00;13.00;;;;;20.20;58.43;100644.09;6302333;22;45180;-68
2021/09/19 05:46:44;;;;;;;;;13.75;13.75;;;;;20.06;58.04;100637.88;6276671;22;45497;-68
2021/09/19 05:49:10;;;;;;;;;10.75;9.00;;;;;20.07;57.85;100660.44;6302390;22;45588;-68
2021/09/19 05:51:35;;;;;;;;;15.75;14.00;;;;;20.12;58.43;100677.22;6276486;22;46938;-68
2021/09/19 05:54:00;;;;;;;;;11.75;11.75;;;;;20.18;58.15;100693.88;6276529;22;45242;-68
2021/09/19 05:56:27;;;;;;;;;13.00;12.50;;;;;20.18;58.28;100701.16;6278755;22;45303;-68
2021/09/19 05:58:54;;;;;;;;;14.00;11.75;;;;;20.15;57.89;100706.78;6275717;22;45514;-68
2021/09/19 06:01:20;;;;;;;;;14.00;13.50;;;;;20.02;57.95;100687.00;6278523;22;45425;-68
2021/09/19 06:03:45;;;;;;;;;9.75;8.25;;;;;19.90;58.34;100667.09;6276670;22;45582;-68
2021/09/19 06:06:10;;;;;;;;;12.00;12.00;;;;;19.95;58.32;100681.16;6278823;22;45358;-68
2021/09/19 06:08:36;;;;;;;;;12.00;10.25;;;;;19.98;58.12;100700.75;6276170;22;45539;-68
2021/09/19 06:11:01;;;;;;;;;12.00;12.00;;;;;19.87;58.66;100684.41;6278536;22;45525;-68
2021/09/19 06:13:26;;;;;;;;;13.00;11.25;;;;;19.94;58.09;100698.38;6278191;22;45286;-68
2021/09/19 06:15:52;;;;;;;;;13.25;13.25;;;;;19.90;57.92;100694.16;6279088;22;45413;-68
2021/09/19 06:18:17;;;;;;;;;11.00;11.00;;;;;19.99;58.06;100697.06;6278279;22;45424;-68
2021/09/19 06:20:43;;;;;;;;;12.75;12.75;;;;;19.90;58.37;100676.06;6278656;22;46381;-68
2021/09/19 06:23:08;;;;;;;;;15.00;13.00;;;;;19.87;58.10;100687.13;6278617;22;45257;-68
2021/09/19 06:25:34;;;;;;;;;10.50;10.50;;;;;19.90;58.25;100694.16;6302549;22;45179;-68
2021/09/19 06:27:59;;;;;;;;;12.50;12.50;;;;;19.91;57.90;100704.00;6278160;22;45104;-68
2021/09/19 06:30:26;;;;;;;;;10.00;9.25;;;;;19.93;57.84;100708.34;6302197;22;46951;-68
2021/09/19 06:32:52;;;;;;;;;11.50;10.25;;;;;19.83;57.84;100710.00;6278256;22;45370;-68
2021/09/19 06:35:18;;;;;;;;;13.25;12.25;;;;;19.87;58.03;100711.50;6278645;22;45188;-68
2021/09/19 06:37:43;;;;;;;;;14.00;11.50;;;;;19.78;57.88;100687.81;6278117;22;45475;-68
2021/09/19 06:40:09;;;;;;;;;12.25;12.25;;;;;19.84;58.22;100702.72;6278366;22;46303;-68
2021/09/19 06:42:34;;;;;;;;;16.50;16.50;;;;;19.62;58.00;100677.16;6302409;22;45765;-68
2021/09/19 06:45:00;;;;;;;;;14.00;13.75;;;;;19.59;58.23;100680.94;6302265;22;45304;-68
2021/09/19 06:47:25;;;;;;;;;11.25;11.25;;;;;19.61;57.77;100695.25;6278142;22;45349;-68
2021/09/19 06:49:52;;;;;;;;;14.25;13.00;;;;;19.73;58.17;100708.88;6301969;22;47079;-68
2021/09/19 06:52:18;;;;;;;;;14.00;12.50;;;;;19.75;58.33;100715.09;6276520;22;45499;-68
2021/09/19 06:54:43;;;;;;;;;14.50;13.50;;;;;19.64;58.21;100702.28;6278578;22;45054;-68
2021/09/19 06:57:09;;;;;;;;;17.25;15.50;;;;;19.63;57.87;100712.25;6276737;22;45206;-68
2021/09/19 06:59:35;;;;;;;;;16.00;13.75;;;;;19.61;57.92;100716.91;6303021;22;48377;-68
2021/09/19 07:02:00;;;;;;;;;11.00;11.00;;;;;19.57;58.07;100715.38;6279487;22;45258;-68
2021/09/19 07:04:25;;;;;;;;;11.75;11.75;;;;;19.63;58.16;100735.75;6279671;22;45089;-68
2021/09/19 07:06:51;;;;;;;;;13.00;12.25;;;;;19.61;58.25;100745.81;6279420;22;45167;-68
2021/09/19 07:09:16;;;;;;;;;14.75;14.75;;;;;19.42;58.49;100706.50;6278402;22;46205;-69
2021/09/19 07:11:42;;;;;;;;;12.00;12.00;;;;;19.62;58.19;100742.13;6277292;22;45215;-70
2021/09/19 07:14:07;;;;;;;;;16.25;13.50;;;;;19.57;57.91;100737.03;6279486;22;45289;-70
2021/09/19 07:16:32;;;;;;;;;15.00;13.25;;;;;19.45;58.53;100718.97;6279521;22;45174;-70
2021/09/19 07:18:58;;;;;;;;;11.50;9.75;;;;;19.56;57.91;100740.75;6279299;22;45300;-70
2021/09/19 07:21:23;;;;;;;;;15.50;13.50;;;;;19.48;58.34;100718.75;6279271;22;45290;-72
2021/09/19 07:23:50;;;;;;;;;14.25;14.25;;;;;19.44;58.02;100722.63;6277664;22;45362;-73
2021/09/19 07:26:16;;;;;;;;;14.50;14.25;;;;;19.55;58.25;100736.28;6278473;22;45309;-71
2021/09/19 07:28:42;;;;;;;;;11.50;11.50;;;;;19.51;58.49;100733.91;6278410;22;45393;-70
2021/09/19 07:31:07;;;;;;;;;10.50;10.50;;;;;19.68;58.26;100762.50;6279295;22;45358;-70
2021/09/19 07:33:33;;;;;;;;;12.00;12.00;;;;;19.46;57.67;100730.66;6278485;22;45173;-71
2021/09/19 07:35:59;;;;;;;;;12.25;12.25;;;;;19.61;58.47;100754.81;6279270;22;45974;-71
2021/09/19 07:38:25;;;;;;;;;15.25;15.25;;;;;19.54;58.17;100744.50;6278978;22;45914;-70
2021/09/19 07:40:51;;;;;;;;;15.00;14.00;;;;;19.50;57.65;100746.56;6278780;22;45432;-71
2021/09/19 07:43:16;;;;;;;;;14.25;13.00;;;;;19.44;57.94;100739.75;6278848;22;45117;-71
2021/09/19 07:45:42;;;;;;;;;14.75;13.50;;;;;19.42;58.00;100743.53;6279172;22;45403;-71
2021/09/19 07:48:13;;;;;;;;;13.00;11.75;;;;;19.57;57.96;100763.25;6278401;22;46284;-71
2021/09/19 07:50:40;;;;;;;;;14.00;14.00;;;;;19.64;57.98;100780.78;6303260;22;45240;-69
2021/09/19 07:53:06;;;;;;;;;12.25;11.75;;;;;19.61;58.10;100775.59;6278756;22;45234;-73
2021/09/19 07:55:34;;;;;;;;;14.50;14.50;;;;;19.55;58.53;100767.91;6276093;22;45222;-73
2021/09/19 07:57:59;;;;;;;;;11.25;11.25;;;;;19.64;58.71;100772.69;6277345;22;45307;-71
2021/09/19 08:00:25;;;;;;;;;16.50;14.50;;;;;19.49;58.36;100755.66;6275844;22;45224;-71
2021/09/19 08:02:50;;;;;;;;;12.50;12.25;;;;;19.72;58.06;100791.09;6278966;22;45358;-70
2021/09/19 08:05:16;;;;;;;;;11.00;11.00;;;;;19.69;58.04;100784.06;6277913;22;45369;-70
2021/09/19 08:07:42;;;;;;;;;15.00;13.25;;;;;19.73;57.67;100787.41;6278282;22;45565;-71
2021/09/19 08:10:09;;;;;;;;;15.50;14.00;;;;;19.69;57.97;100794.03;6277545;22;45484;-69
2021/09/19 08:12:34;;;;;;;;;16.00;16.00;;;;;19.58;58.46;100767.72;6278247;22;45306;-70
2021/09/19 08:15:00;;;;;;;;;14.25;11.50;;;;;19.74;58.22;100789.16;6278436;22;45385;-70
2021/09/19 08:17:25;;;;;;;;;13.75;12.50;;;;;19.76;58.44;100787.22;6279156;22;45244;-69
2021/09/19 08:19:50;;;;;;;;;16.00;15.50;;;;;19.81;57.85;100793.19;6276824;22;45128;-67
2021/09/19 08:22:16;;;;;;;;;16.75;13.50;;;;;19.90;57.94;100810.66;6279130;22;45215;-68
2021/09/19 08:24:44;;;;;;;;;11.50;10.25;;;;;19.82;57.86;100792.22;6302828;22;45464;-71
2021/09/19 08:27:10;;;;;;;;;12.00;12.00;;;;;19.61;58.13;100760.22;6278781;22;46166;-68
2021/09/19 08:29:53;;;;;;;;;14.00;14.00;;;;;19.86;57.89;100801.84;6278433;22;45394;-74
2021/09/19 08:32:18;;;;;;;;;16.75;16.75;;;;;19.84;57.49;100801.09;6276707;22;45545;-70
2021/09/19 08:34:44;;;;;;;;;13.00;10.00;;;;;19.57;58.03;100761.41;6278642;22;45302;-81
2021/09/19 08:37:09;;;;;;;;;13.50;12.25;;;;;19.75;58.26;100789.06;6277743;22;45399;-71
2021/09/19 08:39:35;;;;;;;;;16.00;14.50;;;;;19.93;57.71;100815.81;6275330;22;45687;-71
2021/09/19 08:42:00;;;;;;;;;15.25;14.75;;;;;19.86;57.71;100809.13;6277173;22;45479;-80
2021/09/19 08:44:26;;;;;;;;;14.25;13.25;;;;;19.79;57.90;100798.69;6276812;22;45461;-69
2021/09/19 08:46:51;;;;;;;;;15.25;15.25;;;;;20.02;57.75;100842.28;6276111;22;45381;-69
2021/09/19 08:49:17;;;;;;;;;18.25;17.25;;;;;19.85;57.59;100810.13;6276377;22;45341;-69
2021/09/19 08:51:43;;;;;;;;;11.50;11.50;;;;;20.03;57.74;100837.72;6277377;22;45406;-74
2021/09/19 08:58:09;;;;;;;;;12.75;11.75;;;;;20.13;57.59;100830.66;6128881;23;46350;-68
2021/09/19 09:04:36;;;;;;;;;16.75;13.75;;;;;20.05;58.27;100823.09;6228618;22;45332;-73
2021/09/19 09:07:02;;;;;;;;;15.75;13.50;;;;;20.19;57.77;100846.50;6244073;22;45793;-71
2021/09/19 09:09:27;;;;;;;;;14.50;13.75;;;;;20.14;57.45;100833.28;6275173;22;46252;-69
2021/09/19 09:12:11;;;;;;;;;16.00;14.75;;;;;20.20;57.54;100840.13;6276974;22;45430;-69
2021/09/19 09:14:48;;;;;;;;;14.25;14.25;;;;;20.31;57.55;100863.72;6269740;22;45357;-70
2021/09/19 09:17:29;;;;;;;;;14.00;13.00;;;;;20.27;57.77;100854.97;6275568;22;45509;-79
2021/09/19 09:20:02;;;;;;;;;14.75;14.75;;;;;20.15;57.98;100837.72;6274130;22;47717;-78
2021/09/19 09:22:30;;;;;;;;;16.50;15.00;;;;;20.20;57.80;100848.25;6276777;22;45525;-79
2021/09/19 09:25:08;;;;;;;;;12.50;12.00;;;;;20.35;57.89;100870.69;6273933;22;45353;-79
2021/09/19 09:27:42;;;;;;;;;14.00;13.50;;;;;20.34;57.86;100869.78;6276496;22;45867;-79
2021/09/19 09:30:09;;;;;;;;;14.25;13.25;;;;;20.30;57.68;100868.28;6275018;22;45596;-78
2021/09/19 09:33:00;;;;;;;;;14.75;12.50;;;;;20.38;57.46;100881.31;6273958;22;45534;-73
2021/09/19 09:35:40;;;;;;;;;14.00;11.50;;;;;20.34;57.62;100860.81;6276942;22;45236;-75
2021/09/19 09:38:23;;;;;;;;;14.75;13.75;;;;;20.32;57.71;100860.91;6277149;22;45362;-74
2021/09/19 09:40:51;;;;;;;;;14.00;14.00;;;;;20.30;58.02;100860.16;6300918;22;48065;-74
2021/09/19 09:43:18;;;;;;;;;14.00;13.50;;;;;20.43;57.63;100864.69;6300482;22;45541;-74
2021/09/19 09:45:46;;;;;;;;;16.75;15.25;;;;;20.31;57.45;100842.94;6278227;22;45164;-74
2021/09/19 09:48:30;;;;;;;;;16.25;15.50;;;;;20.51;57.65;100875.84;6277417;22;45464;-74
2021/09/19 09:50:57;;;;;;;;;11.50;11.25;;;;;20.54;57.04;100875.63;6277828;22;45273;-74
2021/09/19 09:53:24;;;;;;;;;15.50;15.25;;;;;20.57;57.48;100882.69;6275779;22;45614;-74
2021/09/19 09:55:51;;;;;;;;;15.25;15.25;;;;;20.41;57.61;100859.38;6278177;22;45315;-74
2021/09/19 09:58:18;;;;;;;;;17.75;15.00;;;;;20.38;57.88;100853.31;6275221;22;45357;-74
2021/09/19 10:00:47;;;;;;;;;18.50;15.00;;;;;20.59;57.61;100888.88;6276515;22;46128;-74
2021/09/19 10:03:13;;;;;;;;;15.00;14.25;;;;;20.57;57.63;100888.97;6278074;22;45544;-74
2021/09/19 10:05:40;;;;;;;;;17.00;14.50;;;;;20.60;57.77;100891.47;6278262;22;45347;-74
2021/09/19 10:08:05;;;;;;;;;13.75;12.50;;;;;20.60;57.65;100874.31;6277986;22;45494;-74
2021/09/19 10:10:41;;;;;;;;;17.50;15.25;;;;;20.62;57.33;100884.09;6277826;22;46256;-74
2021/09/19 10:13:08;;;;;;;;;14.25;14.25;;;;;20.58;57.19;100877.16;6301600;22;45419;-74
2021/09/19 10:15:34;;;;;;;;;14.75;14.00;;;;;20.67;57.20;100891.94;6278273;22;45335;-74
2021/09/19 10:18:00;;;;;;;;;15.75;15.50;;;;;20.67;57.28;100887.38;6277956;22;45303;-74
2021/09/19 10:20:41;;;;;;;;;15.50;15.50;;;;;20.77;57.56;100908.41;6277913;22;45359;-74
2021/09/19 10:23:20;;;;;;;;;11.00;9.75;;;;;20.76;57.53;100896.69;6277892;22;45338;-74
2021/09/19 10:25:49;;;;;;;;;14.25;14.00;;;;;20.80;56.79;100897.31;6277464;22;45398;-74
2021/09/19 10:28:24;;;;;;;;;14.00;14.00;;;;;20.76;56.70;100882.25;6276927;22;45392;-73
2021/09/19 10:31:07;;;;;;;;;11.00;11.00;;;;;20.87;57.02;100885.91;6278066;22;45393;-74
2021/09/19 10:33:43;;;;;;;;;16.25;14.75;;;;;20.72;56.90;100858.06;6275266;22;45787;-74
2021/09/19 10:36:28;;;;;;;;;13.75;13.00;;;;;20.71;56.65;100859.06;6277937;22;45369;-74
2021/09/19 10:39:17;;;;;;;;;16.25;14.00;;;;;20.82;56.42;100865.53;6301180;22;45746;-74
2021/09/19 10:42:15;;;;;;;;;14.50;12.75;;;;;20.96;57.19;100876.22;6277819;22;45982;-74
2021/09/19 10:44:44;;;;;;;;;12.75;11.50;;;;;20.99;56.98;100884.13;6275327;22;45507;-74
2021/09/19 10:47:10;;;;;;;;;16.25;15.25;;;;;20.89;56.79;100873.09;6275588;22;45377;-75
2021/09/19 10:49:36;;;;;;;;;13.25;12.75;;;;;20.99;56.63;100881.41;6277477;22;45552;-75
2021/09/19 10:52:01;;;;;;;;;16.25;16.00;;;;;21.04;56.19;100887.38;6277916;22;46059;-75
2021/09/19 10:54:50;;;;;;;;;12.25;12.25;;;;;21.09;56.58;100892.47;6277516;22;45333;-75
2021/09/19 10:57:32;;;;;;;;;16.00;15.00;;;;;21.11;56.44;100890.50;6271615;22;45246;-75
2021/09/19 11:00:24;;;;;;;;;15.50;15.00;;;;;21.16;56.57;100901.03;6276761;22;45345;-74
2021/09/19 11:03:26;;;;;;;;;18.25;15.25;;;;;21.18;56.92;100891.75;6272435;22;46574;-75
2021/09/19 11:05:52;;;;;;;;;19.50;13.75;;;;;21.11;56.46;100882.34;6271115;22;45467;-75
2021/09/19 11:08:20;;;;;;;;;15.00;15.00;;;;;21.22;56.80;100884.28;6277838;22;45235;-75
2021/09/19 11:10:46;;;;;;;;;13.50;13.50;;;;;21.23;56.51;100886.88;6277250;22;45253;-75
2021/09/19 11:13:42;;;;;;;;;17.25;15.50;;;;;21.28;56.55;100881.97;6274771;22;47584;-75
2021/09/19 11:16:07;;;;;;;;;14.50;13.50;;;;;21.32;56.55;100887.16;6270323;22;45317;-75
2021/09/19 11:18:39;;;;;;;;;14.75;13.50;;;;;21.35;56.85;100889.63;6277820;22;45285;-75
2021/09/19 11:21:10;;;;;;;;;16.00;15.00;;;;;21.39;56.28;100874.88;6277549;22;45417;-75
2021/09/19 11:23:45;;;;;;;;;16.00;15.25;;;;;21.42;56.59;100894.50;6277336;22;45254;-75